Time;durP1;ratioP1;P1;durP2;ratioP2;P2;SDS_P1;SDS_P2;PMS_P1;PMS_P2;Temp;Humidity;BMP_temperature;BMP_pressure;BME280_temperature;BME280_humidity;BME280_pressure;Samples;Min_cycle;Max_cycle;Signal;HPM_P1;HPM_P2
2021/10/02 00:44:43;;;;;;;;;;;7.00;86.60;;;;;;4854856;29;20529;-73
2021/10/02 00:47:12;;;;;;;16.38;2.05;;;6.90;86.60;;;;;;4880703;29;19970;-73
2021/10/02 00:49:42;;;;;;;11.95;2.50;;;6.90;86.60;;;;;;4893361;29;20048;-72
2021/10/02 00:52:13;;;;;;;25.52;2.47;;;6.80;86.80;;;;;;4887626;29;20053;-72
2021/10/02 00:54:42;;;;;;;14.88;1.77;;;6.80;86.90;;;;;;4872781;29;20056;-72
2021/10/02 00:57:11;;;;;;;13.85;1.83;;;6.70;87.10;;;;;;4881005;29;20053;-72
2021/10/02 00:59:38;;;;;;;15.32;1.63;;;6.70;87.30;;;;;;4880848;29;20053;-72
2021/10/02 01:02:23;;;;;;;16.45;2.40;;;6.60;87.40;;;;;;4870578;29;20051;-72
2021/10/02 01:04:57;;;;;;;12.48;1.90;;;6.50;87.70;;;;;;4882804;29;20044;-72
2021/10/02 01:07:50;;;;;;;21.08;3.35;;;6.40;87.90;;;;;;4882937;29;20061;-72
2021/10/02 01:10:38;;;;;;;;;;;6.40;88.10;;;;;;4869491;29;20049;-72
2021/10/02 01:13:19;;;;;;;24.05;2.20;;;6.40;88.20;;;;;;4852335;29;19933;-73
2021/10/02 01:16:08;;;;;;;11.77;1.95;;;6.50;88.10;;;;;;4860717;29;20064;-81
2021/10/02 01:18:51;;;;;;;12.38;1.75;;;6.50;88.00;;;;;;4870541;29;20057;-77
2021/10/02 01:21:47;;;;;;;16.85;2.28;;;6.60;88.10;;;;;;4864124;29;20451;-77
2021/10/02 01:24:41;;;;;;;17.88;2.67;;;6.80;88.10;;;;;;4842734;29;20057;-77
2021/10/02 01:27:26;;;;;;;;;;;6.80;87.90;;;;;;4861342;29;20061;-76
2021/10/02 01:29:56;;;;;;;14.55;1.60;;;6.90;87.80;;;;;;4861060;29;19936;-76
2021/10/02 01:32:35;;;;;;;17.27;1.67;;;7.00;87.60;;;;;;4843167;29;20062;-76
2021/10/02 01:49:21;;;;;;;18.45;2.55;;;7.20;87.40;;;;;;4880666;29;20048;-77
2021/10/02 01:51:50;;;;;;;18.63;2.38;;;7.30;87.30;;;;;;4895175;29;20495;-75
2021/10/02 01:54:20;;;;;;;11.43;1.60;;;7.30;87.30;;;;;;4897174;29;20055;-76
2021/10/02 01:56:48;;;;;;;19.48;2.42;;;7.30;87.30;;;;;;4865735;29;20060;-76
2021/10/02 01:59:18;;;;;;;15.40;1.77;;;7.30;87.20;;;;;;4883853;29;20056;-76
2021/10/02 02:01:48;;;;;;;22.92;2.53;;;7.30;87.20;;;;;;4851714;29;20065;-75
2021/10/02 02:04:18;;;;;;;24.27;2.65;;;7.30;87.30;;;;;;4863013;29;20045;-77
2021/10/02 02:06:47;;;;;;;14.90;1.67;;;7.30;87.20;;;;;;4863233;29;20053;-77
2021/10/02 02:09:16;;;;;;;11.57;1.48;;;7.30;87.30;;;;;;4878710;29;20060;-77
2021/10/02 02:11:45;;;;;;;23.75;2.25;;;7.30;87.20;;;;;;4866319;29;20056;-77
2021/10/02 02:14:14;;;;;;;16.15;2.10;;;7.30;87.10;;;;;;4879510;29;20065;-77
2021/10/02 02:16:45;;;;;;;16.48;2.00;;;7.30;87.20;;;;;;4893664;29;20045;-77
2021/10/02 02:19:15;;;;;;;11.20;1.95;;;7.30;87.10;;;;;;4863195;29;20407;-77
2021/10/02 02:21:45;;;;;;;12.15;2.00;;;7.30;87.10;;;;;;4880508;29;20063;-77
2021/10/02 02:24:13;;;;;;;11.07;1.88;;;7.30;87.10;;;;;;4865706;29;20418;-77
2021/10/02 02:26:41;;;;;;;14.77;2.33;;;7.30;87.10;;;;;;4883379;29;20507;-77
2021/10/02 02:29:09;;;;;;;9.50;1.80;;;7.30;87.30;;;;;;4868094;29;20056;-77
2021/10/02 02:31:38;;;;;;;19.52;2.13;;;7.20;87.20;;;;;;4866735;29;20045;-77
2021/10/02 02:34:06;;;;;;;10.88;1.50;;;7.30;87.10;;;;;;4878080;29;20048;-77
2021/10/02 02:36:33;;;;;;;9.48;1.50;;;7.30;87.10;;;;;;4875874;29;20420;-77
2021/10/02 02:39:01;;;;;;;18.52;2.03;;;7.30;87.10;;;;;;4862794;29;20053;-76
2021/10/02 02:41:29;;;;;;;11.32;1.90;;;7.30;87.00;;;;;;4856741;29;20045;-76
2021/10/02 02:43:56;;;;;;;12.23;2.00;;;7.30;86.90;;;;;;4891472;29;20376;-75
2021/10/02 02:46:31;;;;;;;11.45;1.60;;;7.40;86.90;;;;;;4897694;29;20045;-76
2021/10/02 02:49:22;;;;;;;12.00;1.85;;;7.50;86.70;;;;;;4881456;29;20059;-75
2021/10/02 02:51:56;;;;;;;11.32;2.00;;;7.60;86.60;;;;;;4897919;29;20056;-77
2021/10/02 02:54:34;;;;;;;13.55;1.70;;;7.60;86.50;;;;;;4867055;29;20056;-76
2021/10/02 02:57:18;;;;;;;16.35;1.67;;;7.60;86.30;;;;;;4878181;29;20056;-76
2021/10/02 02:59:59;;;;;;;18.50;1.98;;;7.70;86.20;;;;;;4861052;29;20542;-76
2021/10/02 03:02:27;;;;;;;12.63;1.90;;;7.70;86.10;;;;;;4871786;29;20049;-76
2021/10/02 03:04:56;;;;;;;16.63;2.25;;;7.70;86.10;;;;;;4881372;29;20056;-77
2021/10/02 03:07:25;;;;;;;14.13;1.40;;;7.70;86.10;;;;;;4897679;29;20415;-76
2021/10/02 03:09:54;;;;;;;13.48;1.63;;;7.70;86.10;;;;;;4864721;29;20056;-76
2021/10/02 03:12:31;;;;;;;15.02;1.50;;;7.70;86.10;;;;;;4883535;29;20056;-76
2021/10/02 03:15:01;;;;;;;17.80;2.17;;;7.80;86.00;;;;;;4863078;29;20117;-76
2021/10/02 03:17:30;;;;;;;15.02;2.17;;;7.80;85.90;;;;;;4879456;29;20375;-76
2021/10/02 03:20:00;;;;;;;14.43;2.28;;;7.80;85.90;;;;;;4862548;29;20049;-76
2021/10/02 03:22:29;;;;;;;8.40;1.58;;;7.80;85.90;;;;;;4879241;29;20057;-76
2021/10/02 03:24:57;;;;;;;7.55;1.77;;;7.80;85.80;;;;;;4880953;29;20056;-76
2021/10/02 03:27:29;;;;;;;9.35;1.70;;;7.90;85.80;;;;;;4865978;29;20055;-76
2021/10/02 03:29:57;;;;;;;10.45;1.92;;;7.80;85.80;;;;;;4896803;29;20048;-77
2021/10/02 03:32:26;;;;;;;15.43;1.75;;;7.80;85.90;;;;;;4897190;29;20071;-76
2021/10/02 03:34:54;;;;;;;14.30;1.70;;;7.90;85.80;;;;;;4879585;29;20423;-76
2021/10/02 03:37:22;;;;;;;15.02;1.85;;;7.90;85.80;;;;;;4888281;29;20403;-76
2021/10/02 03:39:53;;;;;;;11.63;1.80;;;7.90;85.80;;;;;;4868045;29;20080;-76
2021/10/02 03:42:22;;;;;;;7.68;1.55;;;7.90;85.80;;;;;;4881926;29;20522;-75
2021/10/02 03:44:52;;;;;;;15.32;1.77;;;7.90;85.70;;;;;;4885010;29;20049;-76
2021/10/02 03:47:22;;;;;;;8.90;1.58;;;8.00;85.70;;;;;;4865457;29;20048;-76
2021/10/02 03:49:50;;;;;;;14.52;1.70;;;8.00;85.70;;;;;;4897457;29;20049;-76
2021/10/02 03:52:17;;;;;;;17.80;2.45;;;8.10;85.60;;;;;;4896371;29;20060;-75
2021/10/02 03:54:45;;;;;;;18.23;2.10;;;8.20;85.60;;;;;;4896019;29;20060;-76
2021/10/02 03:57:13;;;;;;;10.77;1.63;;;8.20;85.60;;;;;;4893969;29;20056;-76
2021/10/02 03:59:41;;;;;;;8.90;1.70;;;8.20;85.60;;;;;;4895189;29;20491;-76
2021/10/02 04:02:10;;;;;;;11.30;1.42;;;8.30;85.60;;;;;;4880102;29;20057;-76
2021/10/02 04:04:37;;;;;;;11.52;1.73;;;8.30;85.50;;;;;;4880892;29;20049;-75
2021/10/02 04:07:05;;;;;;;12.75;1.90;;;8.30;85.50;;;;;;4877706;29;20144;-75
2021/10/02 04:09:32;;;;;;;10.52;1.75;;;8.30;85.50;;;;;;4878045;29;20052;-76
2021/10/02 04:12:00;;;;;;;16.55;1.70;;;8.40;85.50;;;;;;4846015;29;20064;-76
2021/10/02 04:14:28;;;;;;;14.48;1.88;;;8.40;85.60;;;;;;4878257;29;20084;-76
2021/10/02 04:16:58;;;;;;;14.10;1.88;;;8.50;85.50;;;;;;4878248;29;20049;-76
2021/10/02 04:19:26;;;;;;;16.60;1.77;;;8.50;85.60;;;;;;4858984;29;20499;-76
2021/10/02 04:21:54;;;;;;;14.77;1.90;;;8.60;85.60;;;;;;4896539;29;20380;-76
2021/10/02 04:24:25;;;;;;;13.55;1.60;;;8.60;85.60;;;;;;4878368;29;20530;-76
2021/10/02 04:26:53;;;;;;;13.18;2.03;;;8.70;85.70;;;;;;4865257;29;20057;-76
2021/10/02 04:29:20;;;;;;;12.88;1.90;;;8.70;85.70;;;;;;4864616;29;20052;-76
2021/10/02 04:31:48;;;;;;;15.00;1.90;;;8.70;85.70;;;;;;4868255;29;20506;-75
2021/10/02 04:34:15;;;;;;;12.10;1.73;;;8.70;85.80;;;;;;4862464;29;20049;-76
2021/10/02 04:36:46;;;;;;;19.05;1.90;;;8.80;85.80;;;;;;4862617;29;20057;-76
2021/10/02 04:39:14;;;;;;;9.52;1.55;;;8.80;85.90;;;;;;4881653;29;20500;-75
2021/10/02 04:41:41;;;;;;;18.65;2.08;;;8.80;85.90;;;;;;4878946;29;20059;-75
2021/10/02 04:44:09;;;;;;;10.80;1.63;;;8.80;86.00;;;;;;4895539;29;20055;-75
2021/10/02 04:46:36;;;;;;;9.57;1.55;;;8.80;86.00;;;;;;4866600;29;20530;-76
2021/10/02 04:49:09;;;;;;;12.32;1.80;;;8.80;86.10;;;;;;4884274;29;20491;-76
2021/10/02 04:51:37;;;;;;;12.45;1.60;;;8.80;86.10;;;;;;4884879;29;20065;-77
2021/10/02 04:54:05;;;;;;;15.13;2.03;;;8.80;86.20;;;;;;4900646;29;20053;-75
2021/10/02 04:56:33;;;;;;;9.10;1.50;;;8.80;86.40;;;;;;4883546;29;20064;-76
2021/10/02 04:59:01;;;;;;;10.68;1.45;;;8.80;86.50;;;;;;4884082;29;20415;-76
2021/10/02 05:01:28;;;;;;;17.40;2.17;;;8.80;86.70;;;;;;4883329;29;20052;-76
2021/10/02 05:03:58;;;;;;;13.23;2.15;;;8.80;86.80;;;;;;4883424;29;20053;-76
2021/10/02 05:06:25;;;;;;;20.25;2.33;;;8.80;86.80;;;;;;4883641;29;20419;-76
2021/10/02 05:08:55;;;;;;;14.82;1.80;;;8.80;86.90;;;;;;4883848;29;20053;-77
2021/10/02 05:11:23;;;;;;;12.27;2.20;;;8.80;87.10;;;;;;4868260;29;20052;-76
2021/10/02 05:13:50;;;;;;;9.35;1.77;;;8.80;87.10;;;;;;4913188;29;20055;-76
2021/10/02 05:16:18;;;;;;;12.63;1.73;;;8.80;87.10;;;;;;4890659;29;20041;-77
2021/10/02 05:18:46;;;;;;;18.52;2.00;;;8.80;87.10;;;;;;4881685;29;20064;-76
2021/10/02 05:21:13;;;;;;;13.35;1.95;;;8.80;87.20;;;;;;4864008;29;20060;-76
2021/10/02 05:23:41;;;;;;;15.40;2.15;;;8.80;87.20;;;;;;4881828;29;20061;-76
2021/10/02 05:26:09;;;;;;;17.33;2.08;;;8.80;87.30;;;;;;4882942;29;20049;-76
2021/10/02 05:28:36;;;;;;;17.55;1.92;;;8.80;87.30;;;;;;4870847;29;20045;-76
2021/10/02 05:31:05;;;;;;;11.35;1.67;;;8.80;87.40;;;;;;4898501;29;20059;-76
2021/10/02 05:33:33;;;;;;;8.93;1.38;;;8.80;87.40;;;;;;4879966;29;20036;-76
2021/10/02 05:36:00;;;;;;;11.20;1.92;;;8.80;87.50;;;;;;4879709;29;20056;-75
2021/10/02 05:38:28;;;;;;;16.85;1.70;;;8.80;87.40;;;;;;4870166;29;20041;-75
2021/10/02 05:40:55;;;;;;;17.67;1.88;;;8.80;87.50;;;;;;4865628;29;20052;-75
2021/10/02 05:43:23;;;;;;;9.88;1.50;;;8.80;87.50;;;;;;4897101;29;20056;-76
2021/10/02 05:45:51;;;;;;;14.75;1.67;;;8.80;87.50;;;;;;4881513;29;20044;-76
2021/10/02 05:48:18;;;;;;;13.98;1.85;;;8.80;87.40;;;;;;4899122;29;20518;-75
2021/10/02 05:50:46;;;;;;;18.90;2.20;;;8.80;87.40;;;;;;4867261;29;20059;-75
2021/10/02 05:53:13;;;;;;;8.25;1.38;;;8.80;87.40;;;;;;4899291;29;20052;-76
2021/10/02 05:55:41;;;;;;;14.35;1.40;;;8.80;87.50;;;;;;4881141;29;20052;-76
2021/10/02 05:58:08;;;;;;;13.15;1.80;;;8.80;87.40;;;;;;4865656;29;20053;-76
2021/10/02 06:00:36;;;;;;;19.98;1.88;;;8.80;87.40;;;;;;4882552;29;20053;-76
2021/10/02 06:03:04;;;;;;;15.20;1.70;;;8.80;87.30;;;;;;4897801;29;20320;-76
2021/10/02 06:05:31;;;;;;;11.38;1.88;;;8.80;87.10;;;;;;4865948;29;20053;-76
2021/10/02 06:07:59;;;;;;;10.35;1.40;;;8.80;87.10;;;;;;4897263;29;20052;-76
2021/10/02 06:10:26;;;;;;;13.13;1.50;;;8.80;87.00;;;;;;4886191;29;20053;-75
2021/10/02 06:12:54;;;;;;;13.32;1.50;;;8.80;86.90;;;;;;4901583;29;20051;-77
2021/10/02 06:15:25;;;;;;;14.57;1.80;;;8.80;86.80;;;;;;4898434;29;20431;-76
2021/10/02 06:17:54;;;;;;;9.20;1.48;;;8.80;86.70;;;;;;4893118;29;20392;-76
2021/10/02 06:20:23;;;;;;;7.95;1.75;;;8.90;86.50;;;;;;4880627;29;20057;-76
2021/10/02 06:22:51;;;;;;;15.77;1.45;;;8.90;86.40;;;;;;4880373;29;20053;-76
2021/10/02 06:25:19;;;;;;;14.18;1.92;;;8.90;86.40;;;;;;4882889;29;20053;-76
2021/10/02 06:27:46;;;;;;;12.55;1.83;;;9.00;86.20;;;;;;4883068;29;20045;-76
2021/10/02 06:30:14;;;;;;;18.65;2.40;;;9.00;86.10;;;;;;4881476;29;20041;-76
2021/10/02 06:32:42;;;;;;;9.90;1.65;;;9.00;85.90;;;;;;4879040;29;20061;-75
2021/10/02 06:35:09;;;;;;;12.52;1.50;;;9.00;85.80;;;;;;4848574;29;20053;-75
2021/10/02 06:37:37;;;;;;;12.02;1.80;;;9.00;85.70;;;;;;4856883;29;20392;-77
2021/10/02 06:40:08;;;;;;;9.82;1.38;;;9.10;85.60;;;;;;4865205;29;20063;-76
2021/10/02 06:42:36;;;;;;;11.95;1.50;;;9.10;85.60;;;;;;4896965;29;20102;-77
2021/10/02 06:45:05;;;;;;;7.80;1.30;;;9.10;85.50;;;;;;4880637;29;20545;-76
2021/10/02 06:47:33;;;;;;;13.07;1.98;;;9.10;85.40;;;;;;4888250;29;20064;-76
2021/10/02 06:50:01;;;;;;;15.13;2.05;;;9.10;85.40;;;;;;4879617;29;20061;-76
2021/10/02 06:52:29;;;;;;;11.00;1.30;;;9.20;85.30;;;;;;4878337;29;20048;-76
2021/10/02 06:54:57;;;;;;;9.85;1.73;;;9.20;85.20;;;;;;4878776;29;20064;-77
2021/10/02 06:57:25;;;;;;;9.85;1.88;;;9.20;85.10;;;;;;4880978;29;20049;-76
2021/10/02 06:59:53;;;;;;;12.50;1.80;;;9.30;85.00;;;;;;4878756;29;20435;-76
2021/10/02 07:02:20;;;;;;;14.20;1.20;;;9.20;85.00;;;;;;4863169;29;20053;-76
2021/10/02 07:04:49;;;;;;;12.80;1.60;;;9.30;84.90;;;;;;4862287;29;20057;-75
2021/10/02 07:07:17;;;;;;;10.07;1.42;;;9.30;84.70;;;;;;4880082;29;20045;-76
2021/10/02 07:09:46;;;;;;;10.20;1.80;;;9.30;84.60;;;;;;4893001;29;20052;-76
2021/10/02 07:12:14;;;;;;;11.68;1.92;;;9.30;84.50;;;;;;4880515;29;20511;-77
2021/10/02 07:14:41;;;;;;;14.85;1.67;;;9.30;84.40;;;;;;4855850;29;20479;-76
2021/10/02 07:17:10;;;;;;;12.52;1.70;;;9.40;84.30;;;;;;4878462;29;20052;-77
2021/10/02 07:19:37;;;;;;;12.80;1.50;;;9.30;84.20;;;;;;4862146;29;20048;-77
2021/10/02 07:22:06;;;;;;;9.10;1.75;;;9.40;84.20;;;;;;4877917;29;20060;-76
2021/10/02 07:24:33;;;;;;;10.82;1.77;;;9.40;84.20;;;;;;4862017;29;20064;-77
2021/10/02 07:27:01;;;;;;;8.70;1.48;;;9.50;84.20;;;;;;4881769;29;20049;-77
2021/10/02 07:29:29;;;;;;;8.23;1.48;;;9.50;84.20;;;;;;4878925;29;20045;-77
2021/10/02 07:31:56;;;;;;;13.63;1.67;;;9.50;84.20;;;;;;4880279;29;20064;-77
2021/10/02 07:34:24;;;;;;;8.70;1.70;;;9.50;84.00;;;;;;4896589;29;20053;-77
2021/10/02 07:36:52;;;;;;;13.35;1.70;;;9.60;84.00;;;;;;4896866;29;20052;-77
2021/10/02 07:39:20;;;;;;;12.52;1.75;;;9.60;83.80;;;;;;4879184;29;20052;-77
2021/10/02 07:41:49;;;;;;;7.20;1.30;;;9.60;83.80;;;;;;4887006;29;20549;-75
2021/10/02 07:44:30;;;;;;;9.60;1.40;;;9.60;83.70;;;;;;4916137;29;20402;-76
2021/10/02 07:47:01;;;;;;;12.50;1.60;;;9.70;83.70;;;;;;4902459;29;20052;-75
2021/10/02 07:49:33;;;;;;;7.57;1.63;;;9.70;83.60;;;;;;4898706;29;20049;-77
2021/10/02 07:52:01;;;;;;;11.55;1.77;;;9.70;83.50;;;;;;4889948;29;20060;-77
2021/10/02 07:54:31;;;;;;;11.93;1.33;;;9.80;83.40;;;;;;4861566;29;20399;-76
2021/10/02 07:57:00;;;;;;;17.65;2.05;;;9.80;83.40;;;;;;4873246;29;20060;-77
2021/10/02 07:59:28;;;;;;;14.23;1.48;;;9.80;83.40;;;;;;4914929;29;20490;-77
2021/10/02 08:01:57;;;;;;;15.23;1.67;;;9.90;83.30;;;;;;4914191;29;20079;-77
2021/10/02 08:04:26;;;;;;;11.73;1.45;;;9.90;83.30;;;;;;4899035;29;20052;-76
2021/10/02 08:06:54;;;;;;;12.77;1.40;;;9.90;83.40;;;;;;4898345;29;20044;-76
2021/10/02 08:09:22;;;;;;;8.82;1.42;;;10.00;83.40;;;;;;4869913;29;20060;-76
2021/10/02 08:11:50;;;;;;;20.23;2.33;;;10.00;83.30;;;;;;4870421;29;20056;-76
2021/10/02 08:14:17;;;;;;;12.95;1.67;;;10.00;83.40;;;;;;4897316;29;20406;-76
2021/10/02 08:16:47;;;;;;;16.02;1.98;;;10.00;83.60;;;;;;4913216;29;20109;-76
2021/10/02 08:19:18;;;;;;;10.02;1.85;;;10.00;83.60;;;;;;4913492;29;20056;-77
2021/10/02 08:21:48;;;;;;;13.73;1.75;;;10.10;83.70;;;;;;4916976;29;20060;-76
2021/10/02 08:24:17;;;;;;;8.85;1.60;;;10.10;83.70;;;;;;4901178;29;20044;-76
2021/10/02 08:26:47;;;;;;;11.52;1.58;;;10.10;83.90;;;;;;4920014;29;20044;-76
2021/10/02 08:29:15;;;;;;;11.50;1.65;;;10.20;84.00;;;;;;4886429;29;20059;-76
2021/10/02 08:31:43;;;;;;;10.85;1.85;;;10.20;84.10;;;;;;4885657;29;20052;-77
2021/10/02 08:34:25;;;;;;;11.77;1.70;;;10.20;84.20;;;;;;4911657;29;20045;-76
2021/10/02 08:36:52;;;;;;;13.90;1.50;;;10.20;84.30;;;;;;4896126;29;20063;-76
2021/10/02 08:39:20;;;;;;;11.85;1.83;;;10.20;84.30;;;;;;4915248;29;20371;-76
2021/10/02 08:41:49;;;;;;;16.10;1.55;;;10.30;84.30;;;;;;4913599;29;20068;-76
2021/10/02 08:44:22;;;;;;;9.43;1.80;;;10.30;84.30;;;;;;4897470;29;20051;-76
2021/10/02 08:46:53;;;;;;;15.18;1.50;;;10.30;84.20;;;;;;4900050;29;20520;-76
2021/10/02 08:49:44;;;;;;;15.07;1.77;;;10.30;84.20;;;;;;4904156;29;20040;-76
2021/10/02 08:52:14;;;;;;;10.38;1.25;;;10.30;84.00;;;;;;4886824;29;20068;-76
2021/10/02 08:54:46;;;;;;;10.27;1.92;;;10.40;84.00;;;;;;4881239;29;20045;-76
2021/10/02 08:57:18;;;;;;;11.15;2.22;;;10.50;84.00;;;;;;4881282;29;20064;-76
2021/10/02 08:59:46;;;;;;;12.00;1.73;;;10.50;83.80;;;;;;4874371;29;20040;-76
2021/10/02 09:02:14;;;;;;;17.42;1.90;;;10.50;83.60;;;;;;4918434;29;20525;-77
2021/10/02 09:04:44;;;;;;;11.40;1.65;;;10.50;83.50;;;;;;4883834;29;20059;-76
2021/10/02 09:07:12;;;;;;;12.57;1.75;;;10.60;83.30;;;;;;4901833;29;20414;-76
2021/10/02 09:09:42;;;;;;;12.45;1.58;;;10.60;83.30;;;;;;4918399;29;20056;-76
2021/10/02 09:12:11;;;;;;;12.23;1.55;;;10.60;83.30;;;;;;4904979;29;20044;-76
2021/10/02 09:14:40;;;;;;;11.23;1.70;;;10.70;83.30;;;;;;4882283;29;20052;-76
2021/10/02 09:17:07;;;;;;;10.73;1.75;;;10.80;83.20;;;;;;4916566;29;20060;-76
2021/10/02 09:19:35;;;;;;;10.50;1.52;;;10.80;83.00;;;;;;4917970;29;20056;-76
2021/10/02 09:22:08;;;;;;;11.60;1.75;;;10.80;82.90;;;;;;4911877;29;20049;-76
2021/10/02 09:24:43;;;;;;;11.45;2.10;;;10.80;82.80;;;;;;4882204;29;20053;-76
2021/10/02 09:27:21;;;;;;;9.82;1.30;;;10.80;82.60;;;;;;4882514;29;20056;-76
2021/10/02 09:29:50;;;;;;;13.27;1.98;;;10.80;82.80;;;;;;4886334;29;20498;-76
2021/10/02 09:32:20;;;;;;;16.17;1.88;;;10.80;82.90;;;;;;4917359;29;20052;-76
2021/10/02 09:34:56;;;;;;;12.02;1.55;;;10.70;83.10;;;;;;4916806;29;20059;-77
2021/10/02 09:37:35;;;;;;;9.07;1.27;;;10.70;83.40;;;;;;4918270;29;20055;-77
2021/10/02 09:40:17;;;;;;;13.95;2.17;;;10.70;83.50;;;;;;4887297;29;20063;-76
2021/10/02 09:42:49;;;;;;;11.00;1.52;;;10.70;83.70;;;;;;4894907;29;20379;-77
2021/10/02 09:45:20;;;;;;;12.70;1.85;;;10.60;83.80;;;;;;4897350;29;20510;-76
2021/10/02 09:47:58;;;;;;;15.65;1.80;;;10.60;84.10;;;;;;4867741;29;20049;-76
2021/10/02 09:50:38;;;;;;;15.82;1.88;;;10.60;84.30;;;;;;4863172;29;20049;-76
2021/10/02 09:53:23;;;;;;;10.85;1.75;;;10.60;84.40;;;;;;4898019;29;20410;-75
2021/10/02 09:55:53;;;;;;;12.57;2.45;;;10.60;84.70;;;;;;4897813;29;20463;-76
2021/10/02 09:58:32;;;;;;;19.88;2.17;;;10.60;84.80;;;;;;4881762;29;20386;-76
2021/10/02 10:01:04;;;;;;;9.60;1.60;;;10.60;84.90;;;;;;4881953;29;20068;-76
2021/10/02 10:03:46;;;;;;;10.68;1.50;;;10.70;85.10;;;;;;4881903;29;20064;-75
2021/10/02 10:06:22;;;;;;;10.57;1.75;;;10.60;85.20;;;;;;4898397;29;20190;-75
2021/10/02 10:09:09;;;;;;;10.00;2.17;;;10.60;85.30;;;;;;4901845;29;20313;-74
2021/10/02 10:11:41;;;;;;;11.80;2.10;;;10.60;85.40;;;;;;4913969;29;20048;-74
2021/10/02 10:14:15;;;;;;;16.90;1.95;;;10.60;85.60;;;;;;4912337;29;20048;-74
2021/10/02 10:16:43;;;;;;;12.45;1.85;;;10.60;85.70;;;;;;4899221;29;20056;-74
2021/10/02 10:19:25;;;;;;;19.80;1.63;;;10.60;85.90;;;;;;4916379;29;20067;-73
2021/10/02 10:22:14;;;;;;;13.95;2.08;;;10.60;86.10;;;;;;4916262;29;20049;-74
2021/10/02 10:24:53;;;;;;;10.52;1.95;;;10.60;86.30;;;;;;4917129;29;20051;-73
2021/10/02 10:27:44;;;;;;;12.07;1.88;;;10.60;86.60;;;;;;4917128;29;20052;-73
2021/10/02 10:30:15;;;;;;;7.50;1.45;;;10.60;86.70;;;;;;4917374;29;20418;-71
2021/10/02 10:32:57;;;;;;;16.92;2.03;;;10.60;86.80;;;;;;4917029;29;20052;-73
2021/10/02 10:35:27;;;;;;;13.38;1.70;;;10.60;87.00;;;;;;4900268;29;20403;-73
2021/10/02 10:37:54;;;;;;;12.23;1.60;;;10.60;87.10;;;;;;4917009;29;20059;-72
2021/10/02 10:40:22;;;;;;;10.43;1.60;;;10.50;87.10;;;;;;4899458;29;20516;-70
2021/10/02 10:42:52;;;;;;;10.48;2.10;;;10.60;87.30;;;;;;4916356;29;20059;-70
2021/10/02 10:45:21;;;;;;;15.75;1.70;;;10.60;87.40;;;;;;4898485;29;20037;-69
2021/10/02 10:47:49;;;;;;;16.95;1.58;;;10.60;87.60;;;;;;4916386;29;20402;-69
2021/10/02 10:50:18;;;;;;;13.63;2.38;;;10.50;87.80;;;;;;4915441;29;20044;-69
2021/10/02 10:52:47;;;;;;;12.38;1.50;;;10.50;88.10;;;;;;4915305;29;20134;-69
2021/10/02 10:55:19;;;;;;;13.98;2.22;;;10.50;88.10;;;;;;4915415;29;20044;-69
2021/10/02 10:57:57;;;;;;;11.00;1.92;;;10.40;88.20;;;;;;4915316;29;20052;-69
2021/10/02 11:00:31;;;;;;;10.85;2.00;;;10.50;88.40;;;;;;4915304;29;20051;-69
2021/10/02 11:03:03;;;;;;;14.20;2.10;;;10.50;88.40;;;;;;4914618;29;20060;-69
2021/10/02 11:05:36;;;;;;;9.88;1.80;;;10.50;88.60;;;;;;4914823;29;20411;-70
2021/10/02 11:08:05;;;;;;;;;;;10.40;88.80;;;;;;4910062;29;20055;-70
2021/10/02 11:10:44;;;;;;;8.88;2.03;;;10.40;88.90;;;;;;4915176;29;19923;-69
2021/10/02 11:13:26;;;;;;;17.40;1.73;;;10.40;88.90;;;;;;4911922;29;20055;-69
2021/10/02 11:15:56;;;;;;;14.43;2.23;;;10.40;89.10;;;;;;4914012;29;20063;-69
2021/10/02 11:18:43;;;;;;;18.10;2.65;;;10.40;89.20;;;;;;4916309;29;20405;-70
2021/10/02 11:21:19;;;;;;;15.15;2.50;;;10.40;89.30;;;;;;4914778;29;20052;-71
2021/10/02 11:24:03;;;;;;;13.45;2.30;;;10.40;89.30;;;;;;4914639;29;20055;-70
2021/10/02 11:26:57;;;;;;;13.82;2.55;;;10.50;89.50;;;;;;4914777;29;20044;-70
2021/10/02 11:29:37;;;;;;;18.08;2.40;;;10.50;89.50;;;;;;4914603;29;20048;-70
2021/10/02 11:32:17;;;;;;;15.07;2.47;;;10.50;89.60;;;;;;4914577;29;20398;-70
2021/10/02 11:35:15;;;;;;;65.53;5.97;;;10.50;89.60;;;;;;4914842;29;20055;-70
2021/10/02 11:38:07;;;;;;;22.23;2.80;;;10.60;89.70;;;;;;4912831;29;20068;-69
2021/10/02 11:40:41;;;;;;;19.63;2.42;;;10.60;89.80;;;;;;4912091;29;20133;-69
2021/10/02 11:43:17;;;;;;;13.63;2.55;;;10.60;89.70;;;;;;4909569;29;20052;-69
2021/10/02 11:45:45;;;;;;;15.50;2.25;;;10.60;89.80;;;;;;4914194;29;20052;-70
2021/10/02 11:48:29;;;;;;;11.60;2.35;;;10.60;89.90;;;;;;4914757;29;20052;-69
2021/10/02 11:51:24;;;;;;;14.00;2.47;;;10.70;90.00;;;;;;4914821;29;20076;-69
2021/10/02 11:53:58;;;;;;;12.13;2.38;;;10.70;90.10;;;;;;4914680;29;20391;-69
2021/10/02 11:56:28;;;;;;;10.82;2.53;;;10.70;90.10;;;;;;4899566;29;20044;-69
2021/10/02 11:58:58;;;;;;;9.75;2.10;;;10.70;90.10;;;;;;4918644;29;20063;-69
2021/10/02 12:01:29;;;;;;;7.65;1.95;;;10.80;90.20;;;;;;4918659;29;20045;-69
2021/10/02 12:04:02;;;;;;;7.25;2.30;;;10.80;90.20;;;;;;4918589;29;20051;-69
2021/10/02 12:06:32;;;;;;;8.50;2.50;;;10.80;90.20;;;;;;4918949;29;20052;-69
2021/10/02 12:09:00;;;;;;;8.93;2.70;;;10.90;90.30;;;;;;4918307;29;20040;-69
2021/10/02 12:11:29;;;;;;;12.18;2.47;;;10.90;90.20;;;;;;4901335;29;20063;-70
2021/10/02 12:13:58;;;;;;;6.68;2.47;;;10.90;90.20;;;;;;4901498;29;20048;-69
2021/10/02 12:16:28;;;;;;;10.15;2.03;;;10.90;90.30;;;;;;4901447;29;20043;-69
2021/10/02 12:19:20;;;;;;;9.23;1.75;;;10.90;90.40;;;;;;4901396;29;20052;-69
2021/10/02 12:21:57;;;;;;;7.30;1.95;;;10.90;90.50;;;;;;4917835;29;20052;-71
2021/10/02 12:24:25;;;;;;;7.00;1.80;;;10.90;90.60;;;;;;4916593;29;20402;-69
2021/10/02 12:26:54;;;;;;;7.40;2.05;;;10.90;90.60;;;;;;4917582;29;20541;-69
2021/10/02 12:29:44;;;;;;;8.75;1.88;;;10.90;90.60;;;;;;4917973;29;20446;-69
2021/10/02 12:32:23;;;;;;;9.50;2.30;;;10.90;90.70;;;;;;4918051;29;20069;-71
2021/10/02 12:34:56;;;;;;;9.35;2.25;;;10.90;90.70;;;;;;4917940;29;20410;-69
2021/10/02 12:37:25;;;;;;;6.85;2.10;;;11.00;90.70;;;;;;4918291;29;20063;-69
2021/10/02 12:39:55;;;;;;;11.05;2.30;;;11.00;90.80;;;;;;4917647;29;20060;-70
2021/10/02 12:42:37;;;;;;;3.92;1.73;;;11.10;90.80;;;;;;4917900;29;20067;-68
2021/10/02 12:45:09;;;;;;;10.25;2.10;;;11.10;90.70;;;;;;4916880;29;20044;-70
2021/10/02 12:47:37;;;;;;;7.18;2.15;;;11.20;90.70;;;;;;4917536;29;20055;-71
2021/10/02 12:50:17;;;;;;;7.97;1.90;;;11.20;90.60;;;;;;4916922;29;20044;-70
2021/10/02 12:52:46;;;;;;;11.85;2.33;;;11.30;90.60;;;;;;4918381;29;20048;-71
2021/10/02 12:55:16;;;;;;;12.57;1.98;;;11.30;90.60;;;;;;4917586;29;20425;-69
2021/10/02 12:57:46;;;;;;;9.68;2.60;;;11.30;90.60;;;;;;4917539;29;20048;-70
2021/10/02 13:00:17;;;;;;;14.48;2.70;;;11.40;90.60;;;;;;4917113;29;20059;-70
2021/10/02 13:02:51;;;;;;;8.40;2.63;;;11.50;90.50;;;;;;4917190;29;20491;-70
2021/10/02 13:05:21;;;;;;;9.05;2.65;;;11.60;90.50;;;;;;4900441;29;20059;-70
2021/10/02 13:07:53;;;;;;;9.13;3.10;;;11.60;90.40;;;;;;4916196;29;20067;-71
2021/10/02 13:10:41;;;;;;;11.30;3.30;;;11.70;90.40;;;;;;4913371;29;20389;-71
2021/10/02 13:13:14;;;;;;;11.98;2.70;;;11.70;90.40;;;;;;4900473;29;20044;-71
2021/10/02 13:15:50;;;;;;;11.27;2.60;;;11.70;90.40;;;;;;4917228;29;20052;-71
2021/10/02 13:18:29;;;;;;;10.25;2.80;;;11.80;90.30;;;;;;4917076;29;20486;-71
2021/10/02 13:21:02;;;;;;;8.95;2.90;;;11.80;90.40;;;;;;4916824;29;20048;-71
2021/10/02 13:23:39;;;;;;;11.23;3.45;;;11.80;90.30;;;;;;4916716;29;20395;-71
2021/10/02 13:26:16;;;;;;;17.85;4.97;;;11.80;90.40;;;;;;4915036;29;20055;-71
2021/10/02 13:28:50;;;;;;;14.93;4.90;;;11.80;90.40;;;;;;4913117;29;20040;-71
2021/10/02 13:31:20;;;;;;;14.40;4.95;;;11.80;90.40;;;;;;4912292;29;20501;-71
2021/10/02 13:33:58;;;;;;;9.93;4.22;;;11.80;90.40;;;;;;4916635;29;20522;-71
2021/10/02 13:36:29;;;;;;;14.00;4.22;;;11.90;90.40;;;;;;4914446;29;20055;-70
2021/10/02 13:39:14;;;;;;;9.18;3.42;;;11.90;90.50;;;;;;4916657;29;20044;-70
2021/10/02 13:41:46;;;;;;;11.82;3.10;;;11.90;90.50;;;;;;4882646;29;20052;-70
2021/10/02 13:44:33;;;;;;;8.87;2.87;;;11.90;90.50;;;;;;4916058;29;20040;-70
2021/10/02 13:47:03;;;;;;;9.32;2.85;;;11.90;90.50;;;;;;4916502;29;20052;-69
2021/10/02 13:49:31;;;;;;;14.93;2.53;;;12.00;90.50;;;;;;4899488;29;20406;-72
2021/10/02 13:51:59;;;;;;;7.80;2.60;;;12.00;90.50;;;;;;4911827;29;20409;-69
2021/10/02 13:54:26;;;;;;;7.80;2.83;;;12.00;90.50;;;;;;4916747;29;20059;-70
2021/10/02 13:57:04;;;;;;;11.88;2.40;;;12.00;90.50;;;;;;4916310;29;20419;-70
2021/10/02 13:59:32;;;;;;;7.78;2.78;;;12.00;90.50;;;;;;4914706;29;20056;-70
2021/10/02 14:02:00;;;;;;;5.32;2.42;;;12.00;90.50;;;;;;4916387;29;20051;-70
2021/10/02 14:04:27;;;;;;;8.80;2.47;;;12.00;90.60;;;;;;4916069;29;20048;-70
2021/10/02 14:06:55;;;;;;;8.73;3.15;;;12.00;90.60;;;;;;4916088;29;20039;-70